sensor_id;sensor_type;location;lat;lon;timestamp;temperature;humidity
3416;DHT22;1721;51.238;9.562;2023-06-24T00:01:59;16.00;99.90
3416;DHT22;1721;51.238;9.562;2023-06-24T00:04:24;15.90;99.90
3416;DHT22;1721;51.238;9.562;2023-06-24T00:06:50;15.90;99.90
3416;DHT22;1721;51.238;9.562;2023-06-24T00:09:17;15.90;99.90
3416;DHT22;1721;51.238;9.562;2023-06-24T00:11:43;15.90;99.90
3416;DHT22;1721;51.238;9.562;2023-06-24T00:14:09;15.90;99.90
3416;DHT22;1721;51.238;9.562;2023-06-24T00:16:34;15.90;99.90
3416;DHT22;1721;51.238;9.562;2023-06-24T00:19:02;15.90;99.90
3416;DHT22;1721;51.238;9.562;2023-06-24T00:21:28;15.90;99.90
3416;DHT22;1721;51.238;9.562;2023-06-24T00:24:00;15.80;99.90
3416;DHT22;1721;51.238;9.562;2023-06-24T00:26:32;15.80;99.90
3416;DHT22;1721;51.238;9.562;2023-06-24T00:28:58;15.80;99.90
3416;DHT22;1721;51.238;9.562;2023-06-24T00:31:23;15.80;99.90
3416;DHT22;1721;51.238;9.562;2023-06-24T00:33:49;15.70;99.90
3416;DHT22;1721;51.238;9.562;2023-06-24T00:36:17;15.70;99.90
3416;DHT22;1721;51.238;9.562;2023-06-24T00:38:43;15.70;99.90
3416;DHT22;1721;51.238;9.562;2023-06-24T00:41:09;15.60;99.90
3416;DHT22;1721;51.238;9.562;2023-06-24T00:43:35;15.60;99.90
3416;DHT22;1721;51.238;9.562;2023-06-24T00:46:00;15.60;99.90
3416;DHT22;1721;51.238;9.562;2023-06-24T00:48:26;15.50;99.90
3416;DHT22;1721;51.238;9.562;2023-06-24T00:50:51;15.50;99.90
3416;DHT22;1721;51.238;9.562;2023-06-24T00:53:18;15.50;99.90
3416;DHT22;1721;51.238;9.562;2023-06-24T00:55:44;15.50;99.90
3416;DHT22;1721;51.238;9.562;2023-06-24T00:58:11;15.50;99.90
3416;DHT22;1721;51.238;9.562;2023-06-24T01:00:42;15.40;99.90
3416;DHT22;1721;51.238;9.562;2023-06-24T01:03:09;15.40;99.90
3416;DHT22;1721;51.238;9.562;2023-06-24T01:05:34;15.40;99.90
3416;DHT22;1721;51.238;9.562;2023-06-24T01:08:01;15.40;99.90
3416;DHT22;1721;51.238;9.562;2023-06-24T01:10:27;15.30;99.90
3416;DHT22;1721;51.238;9.562;2023-06-24T01:12:53;15.30;99.90
3416;DHT22;1721;51.238;9.562;2023-06-24T01:15:19;15.30;99.90
3416;DHT22;1721;51.238;9.562;2023-06-24T01:18:07;15.20;99.90
3416;DHT22;1721;51.238;9.562;2023-06-24T01:20:45;15.20;99.90
3416;DHT22;1721;51.238;9.562;2023-06-24T01:23:37;15.20;99.90
3416;DHT22;1721;51.238;9.562;2023-06-24T01:32:04;15.10;99.90
3416;DHT22;1721;51.238;9.562;2023-06-24T01:34:39;15.10;99.90
3416;DHT22;1721;51.238;9.562;2023-06-24T01:37:17;15.10;99.90
3416;DHT22;1721;51.238;9.562;2023-06-24T01:39:50;15.10;99.90
3416;DHT22;1721;51.238;9.562;2023-06-24T01:42:19;15.00;99.90
3416;DHT22;1721;51.238;9.562;2023-06-24T01:44:48;15.00;99.90
3416;DHT22;1721;51.238;9.562;2023-06-24T01:47:17;15.00;99.90
3416;DHT22;1721;51.238;9.562;2023-06-24T01:49:44;14.90;99.90
3416;DHT22;1721;51.238;9.562;2023-06-24T01:52:11;14.90;99.90
3416;DHT22;1721;51.238;9.562;2023-06-24T01:54:40;14.90;99.90
3416;DHT22;1721;51.238;9.562;2023-06-24T01:57:08;14.90;99.90
3416;DHT22;1721;51.238;9.562;2023-06-24T01:59:38;14.90;99.90
3416;DHT22;1721;51.238;9.562;2023-06-24T02:02:06;14.90;99.90
3416;DHT22;1721;51.238;9.562;2023-06-24T02:04:32;14.90;99.90
3416;DHT22;1721;51.238;9.562;2023-06-24T02:07:01;14.90;99.90
3416;DHT22;1721;51.238;9.562;2023-06-24T02:09:28;14.90;99.90
3416;DHT22;1721;51.238;9.562;2023-06-24T02:11:57;14.90;99.90
3416;DHT22;1721;51.238;9.562;2023-06-24T02:14:23;14.90;99.90
3416;DHT22;1721;51.238;9.562;2023-06-24T02:16:51;14.90;99.90
3416;DHT22;1721;51.238;9.562;2023-06-24T02:19:22;14.90;99.90
3416;DHT22;1721;51.238;9.562;2023-06-24T02:21:49;14.90;99.90
3416;DHT22;1721;51.238;9.562;2023-06-24T02:24:17;14.90;99.90
3416;DHT22;1721;51.238;9.562;2023-06-24T02:26:43;14.80;99.90
3416;DHT22;1721;51.238;9.562;2023-06-24T02:29:10;14.90;99.90
3416;DHT22;1721;51.238;9.562;2023-06-24T02:31:38;14.80;99.90
3416;DHT22;1721;51.238;9.562;2023-06-24T02:34:03;14.80;99.90
3416;DHT22;1721;51.238;9.562;2023-06-24T02:36:29;14.80;99.90
3416;DHT22;1721;51.238;9.562;2023-06-24T02:38:55;14.80;99.90
3416;DHT22;1721;51.238;9.562;2023-06-24T02:41:20;14.80;99.90
3416;DHT22;1721;51.238;9.562;2023-06-24T02:43:46;14.80;99.90
3416;DHT22;1721;51.238;9.562;2023-06-24T02:46:11;14.70;99.90
3416;DHT22;1721;51.238;9.562;2023-06-24T02:48:37;14.50;99.90
3416;DHT22;1721;51.238;9.562;2023-06-24T02:51:05;14.50;99.90
3416;DHT22;1721;51.238;9.562;2023-06-24T02:53:32;14.40;99.90
3416;DHT22;1721;51.238;9.562;2023-06-24T02:55:59;14.30;99.90
3416;DHT22;1721;51.238;9.562;2023-06-24T02:58:24;14.40;99.90
3416;DHT22;1721;51.238;9.562;2023-06-24T03:01:00;14.30;99.90
3416;DHT22;1721;51.238;9.562;2023-06-24T03:03:28;14.40;99.90
3416;DHT22;1721;51.238;9.562;2023-06-24T03:05:54;14.50;99.90
3416;DHT22;1721;51.238;9.562;2023-06-24T03:08:22;14.60;99.90
3416;DHT22;1721;51.238;9.562;2023-06-24T03:10:50;14.60;99.90
3416;DHT22;1721;51.238;9.562;2023-06-24T03:13:16;14.60;99.90
3416;DHT22;1721;51.238;9.562;2023-06-24T03:15:41;14.60;99.90
3416;DHT22;1721;51.238;9.562;2023-06-24T03:18:07;14.50;99.90
3416;DHT22;1721;51.238;9.562;2023-06-24T03:20:32;14.50;99.90
3416;DHT22;1721;51.238;9.562;2023-06-24T03:23:07;14.40;99.90
3416;DHT22;1721;51.238;9.562;2023-06-24T03:25:33;14.40;99.90
3416;DHT22;1721;51.238;9.562;2023-06-24T03:27:59;14.30;99.90
3416;DHT22;1721;51.238;9.562;2023-06-24T03:30:26;14.30;99.90
3416;DHT22;1721;51.238;9.562;2023-06-24T03:32:52;14.30;99.90
3416;DHT22;1721;51.238;9.562;2023-06-24T03:35:17;14.40;99.90
3416;DHT22;1721;51.238;9.562;2023-06-24T03:37:43;14.40;99.90
3416;DHT22;1721;51.238;9.562;2023-06-24T03:40:09;14.40;99.90
3416;DHT22;1721;51.238;9.562;2023-06-24T03:42:35;14.40;99.90
3416;DHT22;1721;51.238;9.562;2023-06-24T03:45:02;14.40;99.90
3416;DHT22;1721;51.238;9.562;2023-06-24T03:47:28;14.40;99.90
3416;DHT22;1721;51.238;9.562;2023-06-24T03:49:54;14.30;99.90
3416;DHT22;1721;51.238;9.562;2023-06-24T03:52:19;14.30;99.90
3416;DHT22;1721;51.238;9.562;2023-06-24T03:54:45;14.40;99.90
3416;DHT22;1721;51.238;9.562;2023-06-24T03:57:12;14.40;99.90
3416;DHT22;1721;51.238;9.562;2023-06-24T03:59:37;14.40;99.90
3416;DHT22;1721;51.238;9.562;2023-06-24T04:02:04;14.50;99.90
3416;DHT22;1721;51.238;9.562;2023-06-24T04:04:36;14.50;99.90
3416;DHT22;1721;51.238;9.562;2023-06-24T04:07:01;14.60;99.90
3416;DHT22;1721;51.238;9.562;2023-06-24T04:09:29;14.70;99.90
3416;DHT22;1721;51.238;9.562;2023-06-24T04:11:54;14.60;99.90
3416;DHT22;1721;51.238;9.562;2023-06-24T04:14:20;14.70;99.90
3416;DHT22;1721;51.238;9.562;2023-06-24T04:16:45;14.80;99.90
3416;DHT22;1721;51.238;9.562;2023-06-24T04:19:11;14.80;99.90
3416;DHT22;1721;51.238;9.562;2023-06-24T04:21:37;15.00;99.90
3416;DHT22;1721;51.238;9.562;2023-06-24T04:24:03;15.10;99.90
3416;DHT22;1721;51.238;9.562;2023-06-24T04:26:30;15.10;99.90
3416;DHT22;1721;51.238;9.562;2023-06-24T04:28:56;15.10;99.90
3416;DHT22;1721;51.238;9.562;2023-06-24T04:31:21;15.30;99.90
3416;DHT22;1721;51.238;9.562;2023-06-24T04:33:47;15.50;99.90
3416;DHT22;1721;51.238;9.562;2023-06-24T04:36:12;15.60;99.90
3416;DHT22;1721;51.238;9.562;2023-06-24T04:38:38;15.80;99.90
3416;DHT22;1721;51.238;9.562;2023-06-24T04:41:03;15.80;99.90
3416;DHT22;1721;51.238;9.562;2023-06-24T04:43:29;15.70;99.90
3416;DHT22;1721;51.238;9.562;2023-06-24T04:45:55;15.70;99.90
3416;DHT22;1721;51.238;9.562;2023-06-24T04:48:23;15.70;99.90
3416;DHT22;1721;51.238;9.562;2023-06-24T04:50:48;15.80;99.90
3416;DHT22;1721;51.238;9.562;2023-06-24T04:53:14;16.00;99.90
3416;DHT22;1721;51.238;9.562;2023-06-24T04:55:40;16.20;99.90
3416;DHT22;1721;51.238;9.562;2023-06-24T04:58:05;16.40;99.90
3416;DHT22;1721;51.238;9.562;2023-06-24T05:00:31;16.60;99.90
3416;DHT22;1721;51.238;9.562;2023-06-24T05:02:56;17.00;99.90
3416;DHT22;1721;51.238;9.562;2023-06-24T05:05:22;17.40;99.90
3416;DHT22;1721;51.238;9.562;2023-06-24T05:07:48;17.50;99.90
3416;DHT22;1721;51.238;9.562;2023-06-24T05:10:13;17.80;99.90
3416;DHT22;1721;51.238;9.562;2023-06-24T05:12:39;18.60;99.90
3416;DHT22;1721;51.238;9.562;2023-06-24T05:15:05;19.20;99.90
3416;DHT22;1721;51.238;9.562;2023-06-24T05:17:30;19.80;99.90
3416;DHT22;1721;51.238;9.562;2023-06-24T05:19:56;20.40;99.90
3416;DHT22;1721;51.238;9.562;2023-06-24T05:22:21;20.50;99.90
3416;DHT22;1721;51.238;9.562;2023-06-24T05:24:47;21.10;99.60
3416;DHT22;1721;51.238;9.562;2023-06-24T05:27:12;21.70;98.90
3416;DHT22;1721;51.238;9.562;2023-06-24T05:29:38;22.10;98.20
3416;DHT22;1721;51.238;9.562;2023-06-24T05:32:04;22.60;97.50
3416;DHT22;1721;51.238;9.562;2023-06-24T05:34:30;23.00;96.80
3416;DHT22;1721;51.238;9.562;2023-06-24T05:36:56;23.30;95.90
3416;DHT22;1721;51.238;9.562;2023-06-24T05:39:21;23.60;96.10
3416;DHT22;1721;51.238;9.562;2023-06-24T05:41:47;23.80;95.80
3416;DHT22;1721;51.238;9.562;2023-06-24T05:44:16;24.10;94.80
3416;DHT22;1721;51.238;9.562;2023-06-24T05:46:44;24.10;94.60
3416;DHT22;1721;51.238;9.562;2023-06-24T05:49:09;24.30;94.40
3416;DHT22;1721;51.238;9.562;2023-06-24T05:51:35;24.40;93.80
3416;DHT22;1721;51.238;9.562;2023-06-24T05:54:00;24.20;94.20
3416;DHT22;1721;51.238;9.562;2023-06-24T05:56:26;24.20;93.90
3416;DHT22;1721;51.238;9.562;2023-06-24T05:58:51;24.30;93.70
3416;DHT22;1721;51.238;9.562;2023-06-24T06:01:17;24.30;93.40
3416;DHT22;1721;51.238;9.562;2023-06-24T06:03:42;24.30;93.20
3416;DHT22;1721;51.238;9.562;2023-06-24T06:06:08;24.30;93.20
3416;DHT22;1721;51.238;9.562;2023-06-24T06:08:36;24.40;93.20
3416;DHT22;1721;51.238;9.562;2023-06-24T06:11:02;24.50;93.00
3416;DHT22;1721;51.238;9.562;2023-06-24T06:13:28;24.70;93.30
3416;DHT22;1721;51.238;9.562;2023-06-24T06:15:55;24.80;93.20
3416;DHT22;1721;51.238;9.562;2023-06-24T06:18:21;25.00;93.30
3416;DHT22;1721;51.238;9.562;2023-06-24T06:20:47;25.20;93.20
3416;DHT22;1721;51.238;9.562;2023-06-24T06:23:12;25.40;92.50
3416;DHT22;1721;51.238;9.562;2023-06-24T06:25:38;25.50;92.60
3416;DHT22;1721;51.238;9.562;2023-06-24T06:28:04;25.60;92.20
3416;DHT22;1721;51.238;9.562;2023-06-24T06:30:30;25.60;91.60
3416;DHT22;1721;51.238;9.562;2023-06-24T06:32:55;25.60;91.80
3416;DHT22;1721;51.238;9.562;2023-06-24T06:35:21;25.70;91.80
3416;DHT22;1721;51.238;9.562;2023-06-24T06:37:46;25.80;91.80
3416;DHT22;1721;51.238;9.562;2023-06-24T06:40:21;25.80;91.60
3416;DHT22;1721;51.238;9.562;2023-06-24T06:42:47;25.90;91.10
3416;DHT22;1721;51.238;9.562;2023-06-24T06:45:13;25.90;91.20
3416;DHT22;1721;51.238;9.562;2023-06-24T06:47:38;25.80;91.10
3416;DHT22;1721;51.238;9.562;2023-06-24T06:50:04;26.00;91.30
3416;DHT22;1721;51.238;9.562;2023-06-24T06:52:30;26.00;90.90
3416;DHT22;1721;51.238;9.562;2023-06-24T06:54:56;26.00;91.20
3416;DHT22;1721;51.238;9.562;2023-06-24T06:57:22;25.90;91.20
3416;DHT22;1721;51.238;9.562;2023-06-24T06:59:48;26.00;91.90
3416;DHT22;1721;51.238;9.562;2023-06-24T07:02:16;26.20;91.70
3416;DHT22;1721;51.238;9.562;2023-06-24T07:04:42;26.30;91.10
3416;DHT22;1721;51.238;9.562;2023-06-24T07:07:08;25.90;92.40
3416;DHT22;1721;51.238;9.562;2023-06-24T07:09:34;26.00;92.00
3416;DHT22;1721;51.238;9.562;2023-06-24T07:11:59;26.00;92.00
3416;DHT22;1721;51.238;9.562;2023-06-24T07:14:25;26.10;91.10
3416;DHT22;1721;51.238;9.562;2023-06-24T07:16:50;26.10;91.20
3416;DHT22;1721;51.238;9.562;2023-06-24T07:19:16;25.90;91.90
3416;DHT22;1721;51.238;9.562;2023-06-24T07:21:42;25.90;91.40
3416;DHT22;1721;51.238;9.562;2023-06-24T07:24:07;25.90;91.80
3416;DHT22;1721;51.238;9.562;2023-06-24T07:26:33;25.90;91.60
3416;DHT22;1721;51.238;9.562;2023-06-24T07:28:59;26.00;91.40
3416;DHT22;1721;51.238;9.562;2023-06-24T07:31:25;26.10;91.00
3416;DHT22;1721;51.238;9.562;2023-06-24T07:33:50;26.10;91.10
3416;DHT22;1721;51.238;9.562;2023-06-24T07:36:16;26.10;91.20
3416;DHT22;1721;51.238;9.562;2023-06-24T07:38:42;26.10;91.10
3416;DHT22;1721;51.238;9.562;2023-06-24T07:41:07;26.10;91.40
3416;DHT22;1721;51.238;9.562;2023-06-24T07:43:33;26.20;91.20
3416;DHT22;1721;51.238;9.562;2023-06-24T07:45:58;26.20;90.60
3416;DHT22;1721;51.238;9.562;2023-06-24T07:48:24;26.10;90.30
3416;DHT22;1721;51.238;9.562;2023-06-24T07:50:49;26.10;91.00
3416;DHT22;1721;51.238;9.562;2023-06-24T07:53:15;26.10;90.60
3416;DHT22;1721;51.238;9.562;2023-06-24T07:55:40;25.90;90.60
3416;DHT22;1721;51.238;9.562;2023-06-24T07:58:06;25.70;90.90
3416;DHT22;1721;51.238;9.562;2023-06-24T08:00:33;25.50;91.50
3416;DHT22;1721;51.238;9.562;2023-06-24T08:02:59;25.40;92.40
3416;DHT22;1721;51.238;9.562;2023-06-24T08:05:25;25.30;91.90
3416;DHT22;1721;51.238;9.562;2023-06-24T08:07:51;25.20;92.20
3416;DHT22;1721;51.238;9.562;2023-06-24T08:10:17;25.20;92.30
3416;DHT22;1721;51.238;9.562;2023-06-24T08:12:43;25.20;92.60
3416;DHT22;1721;51.238;9.562;2023-06-24T08:15:09;25.10;92.90
3416;DHT22;1721;51.238;9.562;2023-06-24T08:17:35;25.00;91.80
3416;DHT22;1721;51.238;9.562;2023-06-24T08:20:02;24.90;92.40
3416;DHT22;1721;51.238;9.562;2023-06-24T08:22:28;24.90;92.30
3416;DHT22;1721;51.238;9.562;2023-06-24T08:24:53;24.90;92.00
3416;DHT22;1721;51.238;9.562;2023-06-24T08:27:19;24.80;92.00
3416;DHT22;1721;51.238;9.562;2023-06-24T08:29:44;24.90;91.50
3416;DHT22;1721;51.238;9.562;2023-06-24T08:32:10;25.00;92.20
3416;DHT22;1721;51.238;9.562;2023-06-24T08:34:36;24.90;92.90
3416;DHT22;1721;51.238;9.562;2023-06-24T08:37:01;24.80;92.80
3416;DHT22;1721;51.238;9.562;2023-06-24T08:39:27;24.90;92.80
3416;DHT22;1721;51.238;9.562;2023-06-24T08:41:52;24.90;92.00
3416;DHT22;1721;51.238;9.562;2023-06-24T08:44:18;25.00;91.50
3416;DHT22;1721;51.238;9.562;2023-06-24T08:46:44;24.80;91.10
3416;DHT22;1721;51.238;9.562;2023-06-24T08:51:59;24.90;92.90
3416;DHT22;1721;51.238;9.562;2023-06-24T08:54:25;24.60;91.80
3416;DHT22;1721;51.238;9.562;2023-06-24T08:56:54;24.50;92.70
3416;DHT22;1721;51.238;9.562;2023-06-24T08:59:20;24.50;91.60
3416;DHT22;1721;51.238;9.562;2023-06-24T09:01:47;24.40;91.90
3416;DHT22;1721;51.238;9.562;2023-06-24T09:04:12;24.30;92.70
3416;DHT22;1721;51.238;9.562;2023-06-24T09:06:38;24.40;92.50
3416;DHT22;1721;51.238;9.562;2023-06-24T09:09:03;24.50;91.40
3416;DHT22;1721;51.238;9.562;2023-06-24T09:11:30;24.60;91.80
3416;DHT22;1721;51.238;9.562;2023-06-24T09:13:59;24.50;90.30
3416;DHT22;1721;51.238;9.562;2023-06-24T09:16:26;24.40;89.00
3416;DHT22;1721;51.238;9.562;2023-06-24T09:18:52;24.50;91.80
3416;DHT22;1721;51.238;9.562;2023-06-24T09:21:26;24.50;92.40
3416;DHT22;1721;51.238;9.562;2023-06-24T09:23:56;24.50;91.10
3416;DHT22;1721;51.238;9.562;2023-06-24T09:26:26;24.50;90.50
3416;DHT22;1721;51.238;9.562;2023-06-24T09:28:52;24.40;90.00
3416;DHT22;1721;51.238;9.562;2023-06-24T09:31:18;24.40;91.60
3416;DHT22;1721;51.238;9.562;2023-06-24T09:33:43;24.40;91.50
3416;DHT22;1721;51.238;9.562;2023-06-24T09:36:13;24.30;92.30
3416;DHT22;1721;51.238;9.562;2023-06-24T09:38:41;24.50;91.50
3416;DHT22;1721;51.238;9.562;2023-06-24T09:41:08;24.60;91.80
3416;DHT22;1721;51.238;9.562;2023-06-24T09:43:37;24.70;90.80
3416;DHT22;1721;51.238;9.562;2023-06-24T09:46:05;24.70;89.90
3416;DHT22;1721;51.238;9.562;2023-06-24T09:48:32;24.80;90.70
3416;DHT22;1721;51.238;9.562;2023-06-24T09:51:01;24.80;89.60
3416;DHT22;1721;51.238;9.562;2023-06-24T09:53:36;24.70;87.30
3416;DHT22;1721;51.238;9.562;2023-06-24T09:56:04;24.60;88.70
3416;DHT22;1721;51.238;9.562;2023-06-24T09:58:32;24.60;88.80
3416;DHT22;1721;51.238;9.562;2023-06-24T10:01:03;24.70;89.00
3416;DHT22;1721;51.238;9.562;2023-06-24T10:03:33;24.60;89.30
3416;DHT22;1721;51.238;9.562;2023-06-24T10:06:02;24.70;91.40
3416;DHT22;1721;51.238;9.562;2023-06-24T10:08:29;24.70;91.50
3416;DHT22;1721;51.238;9.562;2023-06-24T10:10:55;24.80;91.00
3416;DHT22;1721;51.238;9.562;2023-06-24T10:13:21;25.00;90.20
3416;DHT22;1721;51.238;9.562;2023-06-24T10:15:46;25.10;90.00
3416;DHT22;1721;51.238;9.562;2023-06-24T10:20:56;25.20;88.70
3416;DHT22;1721;51.238;9.562;2023-06-24T10:23:22;25.00;86.60
3416;DHT22;1721;51.238;9.562;2023-06-24T10:25:48;25.10;88.10
3416;DHT22;1721;51.238;9.562;2023-06-24T10:28:14;25.10;88.60
3416;DHT22;1721;51.238;9.562;2023-06-24T10:30:39;25.20;90.30
3416;DHT22;1721;51.238;9.562;2023-06-24T10:33:09;25.20;88.60
3416;DHT22;1721;51.238;9.562;2023-06-24T10:35:41;25.20;88.30
3416;DHT22;1721;51.238;9.562;2023-06-24T10:38:10;25.40;89.60
3416;DHT22;1721;51.238;9.562;2023-06-24T10:40:41;25.20;88.60
3416;DHT22;1721;51.238;9.562;2023-06-24T10:43:29;25.10;88.10
3416;DHT22;1721;51.238;9.562;2023-06-24T10:45:56;25.20;86.80
3416;DHT22;1721;51.238;9.562;2023-06-24T10:48:23;25.20;85.20
3416;DHT22;1721;51.238;9.562;2023-06-24T10:50:49;25.40;85.40
3416;DHT22;1721;51.238;9.562;2023-06-24T10:53:15;25.50;88.20
3416;DHT22;1721;51.238;9.562;2023-06-24T10:55:44;25.50;89.10
3416;DHT22;1721;51.238;9.562;2023-06-24T10:58:11;25.60;90.00
3416;DHT22;1721;51.238;9.562;2023-06-24T11:00:38;25.70;87.90
3416;DHT22;1721;51.238;9.562;2023-06-24T11:03:10;25.80;88.60
3416;DHT22;1721;51.238;9.562;2023-06-24T11:05:41;25.80;87.50
3416;DHT22;1721;51.238;9.562;2023-06-24T11:08:10;25.90;88.00
3416;DHT22;1721;51.238;9.562;2023-06-24T11:10:47;26.00;87.40
3416;DHT22;1721;51.238;9.562;2023-06-24T11:13:13;26.20;87.50
3416;DHT22;1721;51.238;9.562;2023-06-24T11:15:39;26.20;83.90
3416;DHT22;1721;51.238;9.562;2023-06-24T11:18:10;26.20;83.30
3416;DHT22;1721;51.238;9.562;2023-06-24T11:20:37;26.20;83.80
3416;DHT22;1721;51.238;9.562;2023-06-24T11:23:07;26.10;83.20
3416;DHT22;1721;51.238;9.562;2023-06-24T11:25:41;26.30;83.10
3416;DHT22;1721;51.238;9.562;2023-06-24T11:28:17;26.30;86.10
3416;DHT22;1721;51.238;9.562;2023-06-24T11:30:43;26.50;85.20
3416;DHT22;1721;51.238;9.562;2023-06-24T11:33:08;26.60;84.90
3416;DHT22;1721;51.238;9.562;2023-06-24T11:35:34;26.70;84.20
3416;DHT22;1721;51.238;9.562;2023-06-24T11:38:01;26.70;86.80
3416;DHT22;1721;51.238;9.562;2023-06-24T11:40:27;26.60;85.60
3416;DHT22;1721;51.238;9.562;2023-06-24T11:42:52;26.60;84.30
3416;DHT22;1721;51.238;9.562;2023-06-24T11:45:22;26.80;84.30
3416;DHT22;1721;51.238;9.562;2023-06-24T11:47:47;26.80;82.60
3416;DHT22;1721;51.238;9.562;2023-06-24T11:50:17;26.60;85.30
3416;DHT22;1721;51.238;9.562;2023-06-24T11:52:47;26.50;83.70
3416;DHT22;1721;51.238;9.562;2023-06-24T11:55:17;26.30;82.20
3416;DHT22;1721;51.238;9.562;2023-06-24T11:58:03;26.30;82.40
3416;DHT22;1721;51.238;9.562;2023-06-24T12:00:42;26.00;85.40
3416;DHT22;1721;51.238;9.562;2023-06-24T12:03:09;25.90;87.10
3416;DHT22;1721;51.238;9.562;2023-06-24T12:05:36;26.00;87.30
3416;DHT22;1721;51.238;9.562;2023-06-24T12:08:07;26.20;86.10
3416;DHT22;1721;51.238;9.562;2023-06-24T12:10:33;26.10;87.20
3416;DHT22;1721;51.238;9.562;2023-06-24T12:13:00;26.10;85.60
3416;DHT22;1721;51.238;9.562;2023-06-24T12:15:26;26.10;83.90
3416;DHT22;1721;51.238;9.562;2023-06-24T12:17:52;26.00;82.60
3416;DHT22;1721;51.238;9.562;2023-06-24T12:20:17;26.20;83.00
3416;DHT22;1721;51.238;9.562;2023-06-24T12:22:44;26.20;84.80
3416;DHT22;1721;51.238;9.562;2023-06-24T12:25:10;26.20;85.30
3416;DHT22;1721;51.238;9.562;2023-06-24T12:27:37;26.00;86.50
3416;DHT22;1721;51.238;9.562;2023-06-24T12:30:03;25.90;84.20
3416;DHT22;1721;51.238;9.562;2023-06-24T12:32:29;26.10;84.00
3416;DHT22;1721;51.238;9.562;2023-06-24T12:34:54;26.30;84.90
3416;DHT22;1721;51.238;9.562;2023-06-24T12:37:20;26.50;81.70
3416;DHT22;1721;51.238;9.562;2023-06-24T12:39:46;26.70;81.20
3416;DHT22;1721;51.238;9.562;2023-06-24T12:42:12;26.80;79.50
3416;DHT22;1721;51.238;9.562;2023-06-24T12:44:38;27.00;82.80
3416;DHT22;1721;51.238;9.562;2023-06-24T12:47:03;27.10;83.90
3416;DHT22;1721;51.238;9.562;2023-06-24T12:49:29;27.10;82.80
3416;DHT22;1721;51.238;9.562;2023-06-24T12:51:55;27.10;79.10
3416;DHT22;1721;51.238;9.562;2023-06-24T12:54:20;27.10;79.40
3416;DHT22;1721;51.238;9.562;2023-06-24T12:56:46;27.00;79.50
3416;DHT22;1721;51.238;9.562;2023-06-24T12:59:11;26.90;79.40
3416;DHT22;1721;51.238;9.562;2023-06-24T13:01:37;26.70;79.90
3416;DHT22;1721;51.238;9.562;2023-06-24T13:04:03;26.60;80.20
3416;DHT22;1721;51.238;9.562;2023-06-24T13:06:29;26.50;80.90
3416;DHT22;1721;51.238;9.562;2023-06-24T13:08:54;26.50;80.10
3416;DHT22;1721;51.238;9.562;2023-06-24T13:11:20;26.40;80.50
3416;DHT22;1721;51.238;9.562;2023-06-24T13:13:46;26.30;80.90
3416;DHT22;1721;51.238;9.562;2023-06-24T13:16:11;26.30;80.60
3416;DHT22;1721;51.238;9.562;2023-06-24T13:18:37;26.20;83.20
3416;DHT22;1721;51.238;9.562;2023-06-24T13:21:02;26.40;81.80
3416;DHT22;1721;51.238;9.562;2023-06-24T13:23:28;26.40;82.40
3416;DHT22;1721;51.238;9.562;2023-06-24T13:25:53;26.60;80.70
3416;DHT22;1721;51.238;9.562;2023-06-24T13:28:19;26.70;85.90
3416;DHT22;1721;51.238;9.562;2023-06-24T13:30:44;26.80;85.90
3416;DHT22;1721;51.238;9.562;2023-06-24T13:33:10;26.80;80.70
3416;DHT22;1721;51.238;9.562;2023-06-24T13:35:36;27.00;81.90
3416;DHT22;1721;51.238;9.562;2023-06-24T13:38:01;27.00;81.10
3416;DHT22;1721;51.238;9.562;2023-06-24T13:40:27;26.80;79.00
3416;DHT22;1721;51.238;9.562;2023-06-24T13:42:53;27.00;78.40
3416;DHT22;1721;51.238;9.562;2023-06-24T13:45:18;27.10;79.40
3416;DHT22;1721;51.238;9.562;2023-06-24T13:47:44;27.10;78.10
3416;DHT22;1721;51.238;9.562;2023-06-24T13:50:10;27.20;79.20
3416;DHT22;1721;51.238;9.562;2023-06-24T13:52:36;27.20;80.20
3416;DHT22;1721;51.238;9.562;2023-06-24T13:55:02;27.30;80.10
3416;DHT22;1721;51.238;9.562;2023-06-24T13:57:28;27.30;78.20
3416;DHT22;1721;51.238;9.562;2023-06-24T13:59:53;27.10;79.40
3416;DHT22;1721;51.238;9.562;2023-06-24T14:02:19;27.20;79.30
3416;DHT22;1721;51.238;9.562;2023-06-24T14:04:45;27.30;80.50
3416;DHT22;1721;51.238;9.562;2023-06-24T14:07:11;27.30;79.10
3416;DHT22;1721;51.238;9.562;2023-06-24T14:09:37;27.20;78.90
3416;DHT22;1721;51.238;9.562;2023-06-24T14:12:04;27.20;76.60
3416;DHT22;1721;51.238;9.562;2023-06-24T14:14:30;27.20;75.50
3416;DHT22;1721;51.238;9.562;2023-06-24T14:16:56;27.20;76.40
3416;DHT22;1721;51.238;9.562;2023-06-24T14:19:21;27.10;78.80
3416;DHT22;1721;51.238;9.562;2023-06-24T14:21:47;27.10;80.30
3416;DHT22;1721;51.238;9.562;2023-06-24T14:24:13;27.30;78.70
3416;DHT22;1721;51.238;9.562;2023-06-24T14:26:39;27.40;77.80
3416;DHT22;1721;51.238;9.562;2023-06-24T14:29:04;27.50;76.60
3416;DHT22;1721;51.238;9.562;2023-06-24T14:31:30;27.50;75.90
3416;DHT22;1721;51.238;9.562;2023-06-24T14:33:56;27.50;77.00
3416;DHT22;1721;51.238;9.562;2023-06-24T14:36:21;27.30;78.90
3416;DHT22;1721;51.238;9.562;2023-06-24T14:38:47;27.20;79.20
3416;DHT22;1721;51.238;9.562;2023-06-24T14:41:13;27.20;79.70
3416;DHT22;1721;51.238;9.562;2023-06-24T14:43:38;27.10;77.50
3416;DHT22;1721;51.238;9.562;2023-06-24T14:46:04;27.00;77.50
3416;DHT22;1721;51.238;9.562;2023-06-24T14:48:29;27.10;78.40
3416;DHT22;1721;51.238;9.562;2023-06-24T14:50:55;27.20;80.20
3416;DHT22;1721;51.238;9.562;2023-06-24T14:53:20;27.20;80.40
3416;DHT22;1721;51.238;9.562;2023-06-24T14:55:46;27.20;82.10
3416;DHT22;1721;51.238;9.562;2023-06-24T14:58:12;27.30;80.70
3416;DHT22;1721;51.238;9.562;2023-06-24T15:00:37;27.20;78.00
3416;DHT22;1721;51.238;9.562;2023-06-24T15:03:03;27.10;78.60
3416;DHT22;1721;51.238;9.562;2023-06-24T15:05:29;27.10;82.20
3416;DHT22;1721;51.238;9.562;2023-06-24T15:07:54;27.20;80.40
3416;DHT22;1721;51.238;9.562;2023-06-24T15:10:20;27.30;79.30
3416;DHT22;1721;51.238;9.562;2023-06-24T15:12:46;27.40;81.70
3416;DHT22;1721;51.238;9.562;2023-06-24T15:15:11;27.40;77.50
3416;DHT22;1721;51.238;9.562;2023-06-24T15:17:37;27.40;73.20
3416;DHT22;1721;51.238;9.562;2023-06-24T15:20:08;27.40;72.90
3416;DHT22;1721;51.238;9.562;2023-06-24T15:22:37;27.30;75.80
3416;DHT22;1721;51.238;9.562;2023-06-24T15:25:03;27.20;75.60
3416;DHT22;1721;51.238;9.562;2023-06-24T15:27:28;27.10;75.00
3416;DHT22;1721;51.238;9.562;2023-06-24T15:29:54;27.10;75.30
3416;DHT22;1721;51.238;9.562;2023-06-24T15:32:19;27.00;76.70
3416;DHT22;1721;51.238;9.562;2023-06-24T15:34:45;27.00;76.30
3416;DHT22;1721;51.238;9.562;2023-06-24T15:37:11;27.00;76.10
3416;DHT22;1721;51.238;9.562;2023-06-24T15:39:38;26.90;76.60
3416;DHT22;1721;51.238;9.562;2023-06-24T15:42:04;27.00;76.20
3416;DHT22;1721;51.238;9.562;2023-06-24T15:44:29;27.20;76.50
3416;DHT22;1721;51.238;9.562;2023-06-24T15:46:55;27.10;76.50
3416;DHT22;1721;51.238;9.562;2023-06-24T15:49:21;27.00;75.70
3416;DHT22;1721;51.238;9.562;2023-06-24T15:51:47;26.90;75.30
3416;DHT22;1721;51.238;9.562;2023-06-24T15:54:12;26.90;77.00
3416;DHT22;1721;51.238;9.562;2023-06-24T15:56:38;26.80;76.20
3416;DHT22;1721;51.238;9.562;2023-06-24T15:59:03;26.90;75.10
3416;DHT22;1721;51.238;9.562;2023-06-24T16:01:29;26.90;75.10
3416;DHT22;1721;51.238;9.562;2023-06-24T16:03:55;26.90;74.70
3416;DHT22;1721;51.238;9.562;2023-06-24T16:06:20;27.00;74.60
3416;DHT22;1721;51.238;9.562;2023-06-24T16:08:46;27.10;74.50
3416;DHT22;1721;51.238;9.562;2023-06-24T16:11:11;27.00;74.00